Terminal Aerodrome Forecast
Issued by NWS Cleveland, OH

Home | Current Version | Previous Version | Text Only | Print | Product List | Glossary On
Versions: 1 2 3 4 5 6 7 8 9 10 11 12 13 14 15 16 17 18 19 20
000
FTUS41 KCLE 280100 AAA
TAFCAK
TAF AMD
KCAK 280148Z 2802/2824 27007KT 6SM -SHSN BR SCT025 OVC040
      TEMPO 2802/2804 2SM -SHSN OVC008
     FM280400 28007KT 6SM -SHSN SCT025 OVC040
      TEMPO 2804/2808 2SM -SHSN OVC025
     FM280800 27006KT P6SM -SHSN SCT025 OVC040
     FM281500 23008KT P6SM BKN045 OVC080=

USA.gov is the U.S. government's official web portal to all federal, state and local government web resources and services.